createdAt,value
2018-09-30T00:00:49.217Z,3.90
2018-09-30T00:03:18.690Z,4.00
2018-09-30T00:05:47.934Z,3.30
2018-09-30T00:08:17.236Z,4.20
2018-09-30T00:10:46.369Z,3.23
2018-09-30T00:13:15.449Z,3.80
2018-09-30T00:15:44.731Z,2.77
2018-09-30T00:18:13.891Z,3.77
2018-09-30T00:20:49.467Z,4.87
2018-09-30T00:23:18.587Z,3.47
2018-09-30T00:25:53.209Z,3.53
2018-09-30T00:28:22.449Z,3.07
2018-09-30T00:30:51.674Z,4.20
2018-09-30T00:33:21.025Z,3.70
2018-09-30T00:35:50.550Z,3.70
2018-09-30T00:38:19.917Z,3.20
2018-09-30T00:40:51.986Z,3.97
2018-09-30T00:43:21.197Z,3.43
2018-09-30T00:45:50.327Z,3.70
2018-09-30T00:48:19.528Z,2.70
2018-09-30T00:50:48.693Z,3.10
2018-09-30T00:53:17.797Z,3.20
2018-09-30T00:55:46.953Z,3.27
2018-09-30T00:58:16.218Z,3.90
2018-09-30T01:00:45.379Z,3.20
2018-09-30T01:03:14.511Z,2.90
2018-09-30T01:05:44.161Z,2.93
2018-09-30T01:08:13.769Z,2.97
2018-09-30T01:10:42.907Z,3.87
2018-09-30T01:13:12.192Z,3.20
2018-09-30T01:15:42.709Z,3.43
2018-09-30T01:18:12.044Z,2.70
2018-09-30T01:20:41.843Z,2.77
2018-09-30T01:23:11.221Z,2.83
2018-09-30T01:25:40.387Z,2.80
2018-09-30T01:28:09.629Z,2.43
2018-09-30T01:30:38.896Z,3.43
2018-09-30T01:33:08.058Z,4.20
2018-09-30T01:35:37.368Z,4.20
2018-09-30T01:38:06.825Z,3.70
2018-09-30T01:40:36.588Z,2.90
2018-09-30T01:43:05.956Z,2.70
2018-09-30T01:45:35.168Z,3.00
2018-09-30T01:48:04.394Z,3.67
2018-09-30T01:50:33.476Z,3.27
2018-09-30T01:53:02.616Z,3.03
2018-09-30T01:55:31.754Z,3.00
2018-09-30T01:58:00.839Z,2.80
2018-09-30T02:00:30.592Z,3.00
2018-09-30T02:02:59.748Z,3.27
2018-09-30T02:05:29.432Z,3.20
2018-09-30T02:07:59.117Z,2.17
2018-09-30T02:10:28.262Z,2.80
2018-09-30T02:12:57.386Z,2.50
2018-09-30T02:15:26.536Z,2.93
2018-09-30T02:17:55.748Z,2.17
2018-09-30T02:20:25.230Z,2.70
2018-09-30T02:22:54.672Z,3.13
2018-09-30T02:25:24.005Z,3.37
2018-09-30T02:27:53.120Z,3.73
2018-09-30T02:30:22.237Z,3.13
2018-09-30T02:32:51.403Z,2.90
2018-09-30T02:35:20.690Z,2.67
2018-09-30T02:37:49.881Z,2.40
2018-09-30T02:40:19.248Z,3.20
2018-09-30T02:42:48.735Z,3.27
2018-09-30T02:45:18.091Z,2.93
2018-09-30T02:47:47.567Z,2.20
2018-09-30T02:50:17.278Z,2.40
2018-09-30T02:52:46.859Z,2.80
2018-09-30T02:55:16.001Z,3.13
2018-09-30T02:57:45.401Z,3.00
2018-09-30T03:00:15.201Z,2.63
2018-09-30T03:02:44.285Z,2.23
2018-09-30T03:05:13.309Z,2.37
2018-09-30T03:07:47.574Z,2.50
2018-09-30T03:10:16.607Z,2.90
2018-09-30T03:12:45.714Z,2.43
2018-09-30T03:15:14.837Z,2.93
2018-09-30T03:17:44.876Z,2.80
2018-09-30T03:20:14.385Z,2.67
2018-09-30T03:22:43.557Z,2.33
2018-09-30T03:25:12.622Z,4.60
2018-09-30T03:27:41.761Z,2.43
2018-09-30T03:30:10.946Z,2.73
2018-09-30T03:32:39.956Z,2.57
2018-09-30T03:35:09.097Z,2.80
2018-09-30T03:37:38.156Z,2.67
2018-09-30T03:40:07.184Z,3.10
2018-09-30T03:42:36.228Z,2.83
2018-09-30T03:45:05.240Z,3.10
2018-09-30T03:47:34.337Z,2.70
2018-09-30T03:50:03.432Z,2.90
2018-09-30T03:52:32.546Z,2.40
2018-09-30T03:55:01.630Z,2.50
2018-09-30T03:57:30.829Z,2.77
2018-09-30T03:59:59.994Z,2.70
2018-09-30T04:02:29.470Z,2.70
2018-09-30T04:04:58.619Z,2.20
2018-09-30T04:07:28.379Z,3.10
2018-09-30T04:09:57.491Z,3.30
2018-09-30T04:12:26.616Z,2.33
2018-09-30T04:14:55.835Z,2.70
2018-09-30T04:17:25.305Z,3.00
2018-09-30T04:19:54.372Z,3.20
2018-09-30T04:22:23.465Z,2.87
2018-09-30T04:24:52.640Z,2.40
2018-09-30T04:27:21.789Z,3.43
2018-09-30T04:29:50.830Z,3.03
2018-09-30T04:32:19.913Z,3.20
2018-09-30T04:34:49.063Z,3.13
2018-09-30T04:37:18.165Z,2.67
2018-09-30T04:39:47.242Z,3.27
2018-09-30T04:42:16.321Z,3.60
2018-09-30T04:44:45.397Z,2.87
2018-09-30T04:47:14.452Z,2.20
2018-09-30T04:49:44.042Z,2.40
2018-09-30T04:52:13.808Z,3.13
2018-09-30T04:54:42.976Z,3.07
2018-09-30T04:57:12.064Z,3.27
2018-09-30T04:59:41.210Z,2.90
2018-09-30T05:02:10.369Z,2.83
2018-09-30T05:04:39.638Z,2.50
2018-09-30T05:07:08.825Z,2.93
2018-09-30T05:09:38.011Z,3.30
2018-09-30T05:12:07.207Z,2.33
2018-09-30T05:14:36.321Z,2.97
2018-09-30T05:17:05.440Z,2.93
2018-09-30T05:19:34.469Z,2.87
2018-09-30T05:22:07.083Z,3.23
2018-09-30T05:24:37.539Z,3.33
2018-09-30T05:27:06.753Z,2.53
2018-09-30T05:29:36.169Z,2.53
2018-09-30T05:32:06.421Z,3.40
2018-09-30T05:34:36.111Z,3.00
2018-09-30T05:37:05.220Z,2.97
2018-09-30T05:39:34.704Z,3.10
2018-09-30T05:42:03.833Z,3.27
2018-09-30T05:44:32.873Z,3.10
2018-09-30T05:47:01.990Z,2.97
2018-09-30T05:49:31.093Z,3.67
2018-09-30T05:52:00.549Z,2.97
2018-09-30T05:54:29.626Z,3.23
2018-09-30T05:56:58.995Z,2.83
2018-09-30T05:59:29.897Z,3.40
2018-09-30T06:01:59.065Z,4.27
2018-09-30T06:04:28.517Z,3.13
2018-09-30T06:06:57.679Z,3.53
2018-09-30T06:09:26.774Z,3.13
2018-09-30T06:11:55.777Z,3.47
2018-09-30T06:14:24.939Z,2.80
2018-09-30T06:16:54.125Z,2.93
2018-09-30T06:19:23.244Z,3.03
2018-09-30T06:21:52.418Z,3.23
2018-09-30T06:24:21.492Z,3.30
2018-09-30T06:26:50.700Z,2.47
2018-09-30T06:29:20.953Z,3.07
2018-09-30T06:31:50.031Z,2.60
2018-09-30T06:34:19.075Z,3.23
2018-09-30T06:36:49.514Z,2.50
2018-09-30T06:39:18.639Z,3.10
2018-09-30T06:41:47.680Z,3.90
2018-09-30T06:44:16.795Z,3.77
2018-09-30T06:46:47.380Z,4.47
2018-09-30T06:49:16.584Z,2.83
2018-09-30T06:51:45.653Z,3.87
2018-09-30T06:54:15.058Z,3.77
2018-09-30T06:56:44.180Z,3.33
2018-09-30T06:59:15.910Z,3.07
2018-09-30T07:01:45.095Z,3.93
2018-09-30T07:04:14.183Z,3.30
2018-09-30T07:06:43.282Z,3.83
2018-09-30T07:09:12.364Z,4.93
2018-09-30T07:11:41.425Z,3.53
2018-09-30T07:14:10.493Z,3.30
2018-09-30T07:16:39.720Z,3.53
2018-09-30T07:19:08.776Z,3.50
2018-09-30T07:21:38.520Z,3.40
2018-09-30T07:24:07.958Z,3.37
2018-09-30T07:26:37.363Z,4.13
2018-09-30T07:29:06.500Z,3.00
2018-09-30T07:31:44.838Z,3.33
2018-09-30T07:34:14.060Z,3.83
2018-09-30T07:36:43.154Z,3.93
2018-09-30T07:39:12.612Z,4.03
2018-09-30T07:41:42.424Z,4.90
2018-09-30T07:44:14.704Z,3.40
2018-09-30T07:46:44.031Z,5.10
2018-09-30T07:49:13.150Z,3.53
2018-09-30T07:51:42.250Z,4.00
2018-09-30T07:54:11.294Z,3.80
2018-09-30T07:56:40.398Z,4.07
2018-09-30T07:59:09.683Z,4.03
2018-09-30T08:01:39.673Z,3.23
2018-09-30T08:04:09.813Z,3.40
2018-09-30T08:06:40.703Z,3.63
2018-09-30T08:09:10.656Z,3.43
2018-09-30T08:11:40.369Z,4.93
2018-09-30T08:14:09.563Z,3.17
2018-09-30T08:16:39.729Z,3.80
2018-09-30T08:19:08.921Z,4.33
2018-09-30T08:21:38.192Z,3.70
2018-09-30T08:24:07.386Z,4.40
2018-09-30T08:26:36.763Z,3.70
2018-09-30T08:29:06.339Z,3.40
2018-09-30T08:31:35.415Z,4.20
2018-09-30T08:34:06.948Z,3.63
2018-09-30T08:36:36.103Z,4.13
2018-09-30T08:39:07.328Z,3.70
2018-09-30T08:41:36.509Z,3.43
2018-09-30T08:44:05.662Z,3.30
2018-09-30T08:46:52.819Z,4.90
2018-09-30T08:49:21.990Z,3.50
2018-09-30T08:51:51.221Z,3.40
2018-09-30T08:54:20.807Z,3.07
2018-09-30T08:56:49.896Z,3.00
2018-09-30T08:59:41.783Z,2.77
2018-09-30T09:02:18.409Z,2.73
2018-09-30T09:04:47.606Z,3.20
2018-09-30T09:07:16.992Z,2.90
2018-09-30T09:09:47.529Z,2.30
2018-09-30T09:12:16.633Z,2.90
2018-09-30T09:14:46.689Z,3.27
2018-09-30T09:20:20.512Z,2.37
2018-09-30T09:22:50.224Z,3.03
2018-09-30T09:25:19.923Z,3.00
2018-09-30T09:27:49.127Z,2.17
2018-09-30T09:30:18.308Z,2.67
2018-09-30T09:32:47.558Z,1.90
2018-09-30T09:35:16.734Z,2.33
2018-09-30T09:37:45.919Z,3.03
2018-09-30T09:40:17.493Z,2.73
2018-09-30T09:42:46.890Z,1.90
2018-09-30T09:45:16.028Z,2.53
2018-09-30T09:47:53.954Z,2.40
2018-09-30T09:50:23.372Z,2.60
2018-09-30T09:52:52.856Z,2.33
2018-09-30T09:55:22.118Z,2.77
2018-09-30T09:57:57.645Z,3.17
2018-09-30T10:00:42.308Z,2.90
2018-09-30T10:03:31.342Z,2.40
2018-09-30T10:19:38.787Z,3.55
2018-09-30T10:22:09.656Z,3.70
2018-09-30T10:24:59.667Z,3.50
2018-09-30T10:30:37.531Z,4.00
2018-09-30T10:36:43.700Z,3.47
2018-09-30T10:39:44.755Z,3.50
2018-09-30T10:47:07.421Z,3.00
2018-09-30T10:49:42.410Z,2.90
2018-09-30T10:52:14.376Z,3.60
2018-09-30T10:54:46.904Z,3.13
2018-09-30T11:01:10.244Z,3.30
2018-09-30T11:04:07.061Z,3.70
2018-09-30T11:06:37.131Z,3.07
2018-09-30T11:23:21.978Z,3.35
2018-09-30T11:25:53.862Z,3.73
2018-09-30T11:28:22.992Z,3.73
2018-09-30T11:31:05.271Z,4.07
2018-09-30T11:33:34.465Z,3.57
2018-09-30T11:36:03.584Z,4.00
2018-09-30T11:38:34.015Z,3.70
2018-09-30T11:41:08.756Z,3.20
2018-09-30T11:43:39.442Z,3.20
2018-09-30T11:46:09.193Z,3.50
2018-09-30T11:48:38.738Z,2.60
2018-09-30T11:51:11.796Z,3.27
2018-09-30T11:53:42.048Z,3.23
2018-09-30T11:56:18.733Z,3.57
2018-09-30T11:58:52.167Z,2.87
2018-09-30T12:01:25.590Z,3.47
2018-09-30T12:04:21.037Z,2.70
2018-09-30T12:14:20.615Z,3.10
2018-09-30T12:17:15.595Z,3.40
2018-09-30T12:22:50.863Z,4.00
2018-09-30T12:25:20.637Z,2.40
2018-09-30T12:27:50.951Z,2.70
2018-09-30T12:30:53.607Z,2.60
2018-09-30T12:33:48.918Z,3.20
2018-09-30T12:44:57.378Z,1.90
2018-09-30T12:59:54.896Z,2.90
2018-09-30T13:05:39.792Z,3.20
2018-09-30T13:08:26.558Z,3.17
2018-09-30T13:11:07.383Z,3.13
2018-09-30T13:13:37.469Z,2.80
2018-09-30T13:16:06.718Z,2.87
2018-09-30T13:18:37.869Z,3.00
2018-09-30T13:21:07.142Z,3.20
2018-09-30T13:23:42.090Z,2.70
2018-09-30T13:26:12.398Z,3.03
2018-09-30T13:28:42.222Z,2.50
2018-09-30T13:31:30.916Z,2.87
2018-09-30T13:34:00.114Z,3.50
2018-09-30T13:36:52.761Z,3.20
2018-09-30T13:39:22.388Z,3.43
2018-09-30T13:41:51.785Z,3.60
2018-09-30T13:44:20.859Z,3.23
2018-09-30T13:46:49.938Z,3.73
2018-09-30T13:49:19.265Z,3.43
2018-09-30T13:51:48.529Z,3.23
2018-09-30T13:54:17.743Z,3.07
2018-09-30T13:56:47.031Z,2.90
2018-09-30T13:59:16.227Z,3.00
2018-09-30T14:01:45.591Z,3.40
2018-09-30T14:04:14.767Z,3.00
2018-09-30T14:06:44.157Z,4.03
2018-09-30T14:09:14.031Z,2.73
2018-09-30T14:11:43.217Z,2.73
2018-09-30T14:14:13.125Z,4.07
2018-09-30T14:16:42.483Z,3.20
2018-09-30T14:19:11.752Z,3.50
2018-09-30T14:21:41.896Z,2.80
2018-09-30T14:24:11.267Z,3.23
2018-09-30T14:26:52.263Z,2.80
2018-09-30T14:29:21.758Z,3.43
2018-09-30T14:31:54.627Z,2.80
2018-09-30T14:34:23.813Z,3.17
2018-09-30T14:36:53.941Z,2.87
2018-09-30T14:39:23.092Z,2.97
2018-09-30T14:41:52.971Z,3.53
2018-09-30T14:44:23.034Z,3.90
2018-09-30T14:46:52.106Z,3.20
2018-09-30T14:49:21.289Z,4.30
2018-09-30T14:51:50.570Z,3.03
2018-09-30T14:54:20.572Z,3.80
2018-09-30T14:56:50.413Z,2.83
2018-09-30T14:59:22.523Z,3.10
2018-09-30T15:01:54.279Z,3.20
2018-09-30T15:04:25.747Z,2.90
2018-09-30T15:06:54.876Z,3.00
2018-09-30T15:09:27.484Z,4.13
2018-09-30T15:12:01.102Z,3.60
2018-09-30T15:14:33.387Z,4.40
2018-09-30T15:17:04.139Z,3.40
2018-09-30T15:19:33.374Z,3.50
2018-09-30T15:22:04.728Z,2.70
2018-09-30T15:24:34.590Z,2.70
2018-09-30T15:27:04.589Z,2.57
2018-09-30T15:29:33.702Z,3.20
2018-09-30T15:32:04.314Z,3.73
2018-09-30T15:34:34.778Z,2.97
2018-09-30T15:37:04.958Z,3.20
2018-09-30T15:39:34.552Z,3.43
2018-09-30T15:42:04.211Z,3.13
2018-09-30T15:44:33.837Z,2.80
2018-09-30T15:47:03.075Z,3.33
2018-09-30T15:49:35.197Z,2.93
2018-09-30T15:52:08.840Z,3.40
2018-09-30T15:54:37.992Z,3.27
2018-09-30T15:57:08.202Z,2.70
2018-09-30T15:59:38.349Z,2.90
2018-09-30T16:02:21.933Z,2.83
2018-09-30T16:05:23.377Z,3.10
2018-09-30T16:07:56.968Z,3.23
2018-09-30T16:10:26.691Z,2.87
2018-09-30T16:12:56.271Z,2.60
2018-09-30T16:15:25.431Z,2.60
2018-09-30T16:17:55.040Z,3.10
2018-09-30T16:20:24.411Z,2.80
2018-09-30T16:23:00.468Z,2.50
2018-09-30T16:25:29.738Z,2.80
2018-09-30T16:28:00.498Z,3.03
2018-09-30T16:30:40.507Z,2.40
2018-09-30T16:33:11.535Z,2.60
2018-09-30T16:35:41.505Z,2.67
2018-09-30T16:38:10.967Z,2.93
2018-09-30T16:40:40.640Z,3.00
2018-09-30T16:43:09.903Z,3.30
2018-09-30T16:45:52.931Z,3.70
2018-09-30T16:48:23.664Z,3.17
2018-09-30T16:50:52.850Z,3.60
2018-09-30T16:53:21.977Z,3.30
2018-09-30T16:55:52.259Z,4.17
2018-09-30T16:58:42.974Z,5.50
2018-09-30T17:01:13.779Z,3.73
2018-09-30T17:03:43.215Z,3.33
2018-09-30T17:06:12.508Z,3.60
2018-09-30T17:08:41.739Z,3.93
2018-09-30T17:11:23.629Z,3.80
2018-09-30T17:13:52.901Z,3.43
2018-09-30T17:16:22.114Z,3.23
2018-09-30T17:18:51.263Z,3.23
2018-09-30T17:21:20.412Z,4.10
2018-09-30T17:23:49.668Z,3.27
2018-09-30T17:26:18.921Z,4.07
2018-09-30T17:28:48.975Z,3.73
2018-09-30T17:31:18.271Z,3.80
2018-09-30T17:33:47.380Z,4.10
2018-09-30T17:36:16.567Z,5.00
2018-09-30T17:38:45.905Z,4.70
2018-09-30T17:41:20.337Z,4.33
2018-09-30T17:43:49.683Z,4.80
2018-09-30T17:46:45.253Z,4.57
2018-09-30T17:49:14.627Z,5.10
2018-09-30T17:51:44.189Z,5.40
2018-09-30T17:54:14.593Z,3.83
2018-09-30T17:56:44.397Z,4.70
2018-09-30T17:59:13.720Z,4.43
2018-09-30T18:01:43.484Z,4.30
2018-09-30T18:04:43.349Z,4.40
2018-09-30T18:07:12.775Z,4.57
2018-09-30T18:09:41.916Z,4.90
2018-09-30T18:12:12.027Z,5.10
2018-09-30T18:14:45.694Z,6.10
2018-09-30T18:17:16.336Z,5.47
2018-09-30T18:19:45.993Z,4.40
2018-09-30T18:22:15.556Z,4.70
2018-09-30T18:24:45.273Z,5.60
2018-09-30T18:27:14.515Z,7.80
2018-09-30T18:29:48.294Z,5.70
2018-09-30T18:32:18.470Z,5.87
2018-09-30T18:34:47.883Z,5.83
2018-09-30T18:37:17.352Z,5.37
2018-09-30T18:43:20.370Z,6.53
2018-09-30T18:46:21.036Z,6.53
2018-09-30T18:51:33.126Z,5.93
2018-09-30T18:54:02.454Z,6.87
2018-09-30T18:56:31.853Z,6.43
2018-09-30T18:59:01.206Z,5.90
2018-09-30T19:02:22.979Z,6.23
2018-09-30T19:04:52.432Z,6.67
2018-09-30T19:07:25.248Z,5.80
2018-09-30T19:09:56.774Z,6.63
2018-09-30T19:12:26.386Z,6.37
2018-09-30T19:14:56.423Z,6.00
2018-09-30T19:17:25.845Z,6.20
2018-09-30T19:22:44.920Z,6.37
2018-09-30T19:25:14.297Z,7.10
2018-09-30T19:27:56.924Z,6.60
2018-09-30T19:30:57.412Z,6.33
2018-09-30T19:33:33.126Z,6.67
2018-09-30T19:36:04.260Z,6.93
2018-09-30T19:39:15.800Z,6.40
2018-09-30T19:41:48.671Z,5.40
2018-09-30T19:44:17.877Z,6.37
2018-09-30T19:46:47.239Z,6.67
2018-09-30T19:49:16.418Z,6.10
2018-09-30T19:51:45.704Z,5.27
2018-09-30T19:54:31.354Z,5.90
2018-09-30T19:57:00.820Z,5.60
2018-09-30T20:02:21.811Z,6.77
2018-09-30T20:04:51.103Z,6.47
2018-09-30T20:07:21.117Z,6.07
2018-09-30T20:09:50.315Z,6.37
2018-09-30T20:12:20.205Z,6.83
2018-09-30T20:14:49.418Z,5.70
2018-09-30T20:17:18.819Z,7.43
2018-09-30T20:19:47.996Z,6.33
2018-09-30T20:22:19.441Z,4.80
2018-09-30T20:24:48.677Z,5.60
2018-09-30T20:27:18.283Z,6.40
2018-09-30T20:29:47.707Z,5.50
2018-09-30T20:32:37.837Z,5.83
2018-09-30T20:36:06.704Z,6.30
2018-09-30T20:38:39.333Z,6.17
2018-09-30T20:41:08.683Z,5.90
2018-09-30T20:44:20.764Z,6.13
2018-09-30T20:47:18.131Z,5.33
2018-09-30T20:49:48.583Z,5.80
2018-09-30T20:52:19.516Z,5.73
2018-09-30T20:54:48.700Z,6.03
2018-09-30T20:58:04.909Z,5.97
2018-09-30T21:00:34.347Z,7.00
2018-09-30T21:03:03.523Z,4.80
2018-09-30T21:06:40.374Z,5.70
2018-09-30T21:09:13.522Z,6.07
2018-09-30T21:11:42.727Z,6.63
2018-09-30T21:14:12.881Z,6.40
2018-09-30T21:16:44.168Z,5.97
2018-09-30T21:21:54.868Z,6.10
2018-09-30T21:24:24.264Z,5.23
2018-09-30T21:26:53.551Z,6.70
2018-09-30T21:29:55.888Z,6.33
2018-09-30T21:32:25.337Z,6.03
2018-09-30T21:38:10.764Z,5.97
2018-09-30T21:43:43.438Z,6.77
2018-09-30T21:46:12.667Z,7.67
2018-09-30T21:48:41.915Z,7.50
2018-09-30T21:51:19.393Z,8.00
2018-09-30T21:54:51.657Z,8.60
2018-09-30T21:57:49.886Z,7.67
2018-09-30T22:00:24.539Z,7.70
2018-09-30T22:02:57.749Z,7.63
2018-09-30T22:08:51.415Z,6.83
2018-09-30T22:15:03.705Z,7.20
2018-09-30T22:23:54.162Z,7.77
2018-09-30T22:26:28.609Z,8.20
2018-09-30T22:29:23.245Z,7.77
2018-09-30T22:32:01.697Z,8.30
2018-09-30T22:35:07.972Z,7.07
2018-09-30T22:37:49.763Z,8.70
2018-09-30T22:40:32.393Z,7.90
2018-09-30T22:43:27.217Z,8.67
2018-09-30T22:49:14.036Z,7.30
2018-09-30T22:51:43.292Z,8.27
2018-09-30T22:57:12.754Z,7.37
2018-09-30T23:00:00.263Z,7.10
2018-09-30T23:02:31.670Z,8.33
2018-09-30T23:05:01.480Z,7.77
2018-09-30T23:07:31.241Z,7.90
2018-09-30T23:34:41.506Z,6.33
2018-09-30T23:37:10.974Z,6.70
2018-09-30T23:39:40.200Z,6.47
2018-09-30T23:45:10.055Z,6.90
2018-09-30T23:47:39.379Z,6.60
2018-09-30T23:53:19.905Z,6.60
2018-09-30T23:56:09.137Z,6.60
2018-09-30T23:59:08.928Z,7.27
